createdAt,value
2023-03-06T00:00:01.261Z,4.84
2023-03-06T00:01:01.228Z,4.73
2023-03-06T00:02:01.210Z,4.88
2023-03-06T00:03:01.218Z,4.80
2023-03-06T00:04:01.214Z,4.80
2023-03-06T00:05:01.117Z,4.85
2023-03-06T00:06:01.156Z,4.78
2023-03-06T00:07:01.059Z,4.73
2023-03-06T00:08:01.039Z,4.70
2023-03-06T00:09:01.002Z,4.70
2023-03-06T00:10:00.981Z,4.78
2023-03-06T00:11:00.956Z,4.73
2023-03-06T00:12:00.923Z,4.72
2023-03-06T00:13:00.890Z,4.73
2023-03-06T00:14:00.874Z,4.78
2023-03-06T00:15:00.840Z,4.75
2023-03-06T00:16:00.905Z,4.70
2023-03-06T00:17:00.785Z,4.73
2023-03-06T00:18:00.759Z,4.72
2023-03-06T00:19:00.752Z,4.72
2023-03-06T00:20:00.777Z,4.73
2023-03-06T00:21:00.672Z,4.65
2023-03-06T00:22:00.655Z,4.65
2023-03-06T00:23:00.631Z,4.66
2023-03-06T00:24:00.595Z,4.65
2023-03-06T00:25:00.568Z,4.63
2023-03-06T00:26:00.540Z,4.65
2023-03-06T00:27:00.572Z,4.65
2023-03-06T00:28:00.487Z,4.69
2023-03-06T00:29:00.460Z,4.63
2023-03-06T00:30:00.432Z,4.55
2023-03-06T00:31:00.404Z,4.63
2023-03-06T00:32:00.446Z,4.66
2023-03-06T00:33:00.344Z,4.54
2023-03-06T00:34:00.319Z,4.59
2023-03-06T00:35:00.325Z,4.59
2023-03-06T00:36:00.263Z,4.60
2023-03-06T00:37:00.255Z,4.52
2023-03-06T00:38:00.223Z,4.66
2023-03-06T00:39:00.179Z,4.67
2023-03-06T00:40:00.196Z,4.48
2023-03-06T00:41:00.138Z,4.54
2023-03-06T00:42:00.163Z,4.59
2023-03-06T00:43:00.083Z,4.63
2023-03-06T00:44:00.046Z,4.54
2023-03-06T00:45:00.020Z,4.51
2023-03-06T00:46:00.040Z,4.63
2023-03-06T00:46:59.954Z,4.63
2023-03-06T00:47:59.930Z,4.69
2023-03-06T00:48:59.897Z,4.66
2023-03-06T00:49:59.877Z,4.66
2023-03-06T00:50:59.900Z,4.66
2023-03-06T00:51:59.825Z,4.60
2023-03-06T00:52:59.789Z,4.67
2023-03-06T00:53:59.764Z,4.67
2023-03-06T00:54:59.740Z,4.80
2023-03-06T00:55:59.709Z,4.77
2023-03-06T00:56:59.683Z,4.73
2023-03-06T00:57:59.658Z,4.70
2023-03-06T00:58:59.627Z,4.82
2023-03-06T00:59:59.599Z,4.78
2023-03-06T01:00:59.583Z,4.77
2023-03-06T01:01:59.573Z,4.80
2023-03-06T01:02:59.517Z,4.85
2023-03-06T01:03:59.491Z,4.75
2023-03-06T01:04:59.456Z,4.82
2023-03-06T01:05:59.434Z,4.70
2023-03-06T01:06:59.427Z,4.75
2023-03-06T01:07:59.374Z,4.63
2023-03-06T01:08:59.348Z,4.65
2023-03-06T01:09:59.324Z,4.55
2023-03-06T01:10:59.289Z,4.60
2023-03-06T01:11:59.289Z,4.60
2023-03-06T01:12:59.242Z,4.72
2023-03-06T01:13:59.218Z,4.58
2023-03-06T01:14:59.183Z,4.60
2023-03-06T01:15:59.158Z,4.50
2023-03-06T01:16:59.128Z,4.47
2023-03-06T01:17:59.105Z,4.48
2023-03-06T01:18:59.072Z,4.62
2023-03-06T01:19:59.050Z,4.52
2023-03-06T01:20:59.021Z,4.58
2023-03-06T01:21:58.990Z,4.63
2023-03-06T01:22:58.981Z,4.59
2023-03-06T01:23:58.937Z,4.59
2023-03-06T01:24:58.912Z,4.58
2023-03-06T01:25:58.875Z,4.66
2023-03-06T01:26:58.865Z,4.55
2023-03-06T01:27:58.825Z,4.58
2023-03-06T01:28:58.792Z,4.45
2023-03-06T01:29:58.795Z,4.54
2023-03-06T01:30:58.738Z,4.52
2023-03-06T01:31:58.776Z,4.50
2023-03-06T01:32:58.680Z,4.62
2023-03-06T01:33:58.662Z,4.52
2023-03-06T01:34:58.628Z,4.45
2023-03-06T01:35:58.606Z,4.48
2023-03-06T01:36:58.572Z,4.51
2023-03-06T01:37:58.555Z,4.45
2023-03-06T01:38:58.545Z,4.45
2023-03-06T01:39:58.497Z,4.47
2023-03-06T01:40:58.468Z,4.37
2023-03-06T01:41:58.451Z,4.45
2023-03-06T01:42:58.416Z,4.42
2023-03-06T01:43:58.387Z,4.47
2023-03-06T01:44:58.354Z,4.41
2023-03-06T01:45:58.403Z,4.37
2023-03-06T01:46:58.304Z,4.44
2023-03-06T01:47:58.282Z,4.40
2023-03-06T01:48:58.251Z,4.44
2023-03-06T01:49:58.226Z,4.48
2023-03-06T01:50:58.191Z,4.44
2023-03-06T01:51:58.175Z,4.40
2023-03-06T01:52:58.139Z,4.37
2023-03-06T01:53:58.114Z,4.40
2023-03-06T01:54:58.102Z,4.47
2023-03-06T01:55:58.057Z,4.44
2023-03-06T01:56:58.031Z,4.48
2023-03-06T01:57:58.003Z,4.48
2023-03-06T01:58:57.996Z,4.47
2023-03-06T01:59:57.957Z,4.41
2023-03-06T02:00:57.942Z,4.44
2023-03-06T02:01:57.931Z,4.45
2023-03-06T02:02:57.862Z,4.48
2023-03-06T02:03:57.841Z,4.33
2023-03-06T02:04:57.807Z,4.48
2023-03-06T02:05:57.788Z,4.36
2023-03-06T02:06:57.754Z,4.34
2023-03-06T02:07:57.731Z,4.36
2023-03-06T02:08:57.694Z,4.40
2023-03-06T02:09:57.672Z,4.40
2023-03-06T02:10:57.665Z,4.34
2023-03-06T02:11:57.627Z,4.27
2023-03-06T02:12:57.588Z,4.27
2023-03-06T02:13:57.569Z,4.27
2023-03-06T02:14:57.530Z,4.29
2023-03-06T02:15:57.514Z,4.24
2023-03-06T02:16:57.571Z,4.15
2023-03-06T02:17:57.461Z,4.20
2023-03-06T02:18:57.424Z,4.20
2023-03-06T02:19:57.396Z,4.14
2023-03-06T02:20:57.369Z,4.12
2023-03-06T02:21:57.343Z,4.04
2023-03-06T02:22:57.316Z,4.11
2023-03-06T02:23:57.291Z,4.08
2023-03-06T02:24:57.254Z,4.11
2023-03-06T02:25:57.242Z,4.05
2023-03-06T02:26:57.224Z,4.08
2023-03-06T02:27:57.179Z,4.06
2023-03-06T02:28:57.151Z,4.09
2023-03-06T02:29:57.126Z,4.04
2023-03-06T02:30:57.106Z,4.08
2023-03-06T02:31:57.070Z,4.16
2023-03-06T02:32:57.036Z,4.09
2023-03-06T02:33:57.021Z,4.15
2023-03-06T02:34:56.977Z,4.14
2023-03-06T02:35:57.029Z,4.15
2023-03-06T02:36:56.926Z,4.08
2023-03-06T02:37:56.900Z,4.12
2023-03-06T02:38:56.866Z,4.15
2023-03-06T02:39:56.845Z,4.05
2023-03-06T02:40:56.813Z,4.04
2023-03-06T02:41:56.789Z,4.04
2023-03-06T02:42:56.788Z,4.05
2023-03-06T02:43:56.743Z,4.04
2023-03-06T02:44:56.703Z,4.00
2023-03-06T02:45:56.739Z,4.00
2023-03-06T02:46:56.651Z,4.09
2023-03-06T02:47:56.622Z,4.04
2023-03-06T02:48:56.590Z,4.08
2023-03-06T02:49:56.562Z,4.05
2023-03-06T02:50:56.545Z,4.12
2023-03-06T02:51:56.580Z,4.09
2023-03-06T02:52:56.563Z,4.15
2023-03-06T02:53:56.452Z,4.26
2023-03-06T02:54:56.433Z,4.15
2023-03-06T02:55:56.395Z,4.18
2023-03-06T02:56:56.364Z,4.16
2023-03-06T02:57:56.344Z,4.08
2023-03-06T02:58:56.330Z,4.11
2023-03-06T02:59:56.288Z,4.04
2023-03-06T03:00:56.256Z,4.05
2023-03-06T03:01:56.229Z,4.04
2023-03-06T03:02:56.200Z,4.04
2023-03-06T03:03:56.178Z,4.06
2023-03-06T03:04:56.195Z,4.04
2023-03-06T03:05:56.117Z,4.14
2023-03-06T03:06:56.084Z,4.14
2023-03-06T03:07:56.062Z,4.04
2023-03-06T03:08:56.042Z,4.06
2023-03-06T03:09:56.004Z,4.09
2023-03-06T03:10:55.982Z,3.97
2023-03-06T03:11:55.948Z,4.05
2023-03-06T03:12:55.923Z,4.05
2023-03-06T03:13:55.898Z,3.98
2023-03-06T03:14:55.888Z,3.93
2023-03-06T03:15:55.875Z,3.98
2023-03-06T03:16:55.812Z,3.93
2023-03-06T03:17:55.774Z,3.93
2023-03-06T03:18:55.751Z,3.96
2023-03-06T03:19:55.742Z,3.96
2023-03-06T03:20:55.703Z,3.93
2023-03-06T03:21:55.668Z,3.87
2023-03-06T03:22:55.645Z,3.90
2023-03-06T03:23:55.615Z,3.88
2023-03-06T03:24:55.672Z,3.97
2023-03-06T03:25:55.564Z,3.84
2023-03-06T03:26:55.552Z,3.78
2023-03-06T03:27:55.508Z,3.80
2023-03-06T03:28:55.493Z,3.79
2023-03-06T03:29:55.459Z,3.90
2023-03-06T03:30:55.503Z,3.79
2023-03-06T03:31:55.394Z,3.78
2023-03-06T03:32:55.365Z,3.73
2023-03-06T03:33:55.338Z,3.75
2023-03-06T03:34:55.311Z,3.72
2023-03-06T03:35:55.371Z,3.60
2023-03-06T03:36:55.256Z,3.57
2023-03-06T03:37:55.265Z,3.55
2023-03-06T03:38:55.204Z,3.57
2023-03-06T03:39:55.168Z,3.52
2023-03-06T03:40:55.144Z,3.42
2023-03-06T03:41:55.122Z,3.47
2023-03-06T03:42:55.096Z,3.54
2023-03-06T03:43:55.061Z,3.57
2023-03-06T03:44:55.028Z,3.58
2023-03-06T03:45:55.006Z,3.52
2023-03-06T03:46:55.001Z,3.55
2023-03-06T03:47:54.944Z,3.48
2023-03-06T03:48:54.929Z,3.45
2023-03-06T03:49:54.889Z,3.47
2023-03-06T03:50:54.876Z,3.50
2023-03-06T03:51:54.830Z,3.48
2023-03-06T03:52:54.821Z,3.45
2023-03-06T03:53:54.783Z,3.52
2023-03-06T03:54:54.753Z,3.47
2023-03-06T03:55:54.726Z,3.57
2023-03-06T03:56:54.697Z,3.66
2023-03-06T03:57:54.666Z,3.58
2023-03-06T03:58:54.645Z,3.52
2023-03-06T03:59:54.616Z,3.57
2023-03-06T04:00:54.598Z,3.48
2023-03-06T04:01:54.564Z,3.50
2023-03-06T04:02:54.548Z,3.52
2023-03-06T04:03:54.497Z,3.54
2023-03-06T04:04:54.510Z,3.51
2023-03-06T04:05:54.474Z,3.48
2023-03-06T04:06:54.418Z,3.55
2023-03-06T04:07:54.387Z,3.52
2023-03-06T04:08:54.357Z,3.47
2023-03-06T04:09:54.325Z,3.48
2023-03-06T04:10:54.312Z,3.51
2023-03-06T04:11:54.270Z,3.48
2023-03-06T04:12:54.250Z,3.42
2023-03-06T04:13:54.223Z,3.51
2023-03-06T04:14:54.187Z,3.42
2023-03-06T04:15:54.220Z,3.43
2023-03-06T04:16:54.132Z,3.50
2023-03-06T04:17:54.099Z,3.51
2023-03-06T04:18:54.102Z,3.50
2023-03-06T04:19:54.055Z,3.47
2023-03-06T04:20:54.030Z,3.40
2023-03-06T04:21:53.991Z,3.50
2023-03-06T04:22:53.968Z,3.47
2023-03-06T04:23:53.938Z,3.40
2023-03-06T04:24:53.905Z,3.35
2023-03-06T04:25:53.876Z,3.48
2023-03-06T04:26:53.851Z,3.47
2023-03-06T04:27:53.826Z,3.48
2023-03-06T04:28:53.799Z,3.42
2023-03-06T04:29:53.763Z,3.35
2023-03-06T04:30:53.743Z,3.43
2023-03-06T04:31:53.713Z,3.40
2023-03-06T04:32:53.694Z,3.33
2023-03-06T04:33:53.652Z,3.42
2023-03-06T04:34:53.649Z,3.35
2023-03-06T04:35:53.680Z,3.47
2023-03-06T04:36:53.571Z,3.40
2023-03-06T04:37:53.544Z,3.47
2023-03-06T04:38:53.617Z,3.33
2023-03-06T04:39:53.486Z,3.45
2023-03-06T04:40:53.462Z,3.36
2023-03-06T04:41:53.432Z,3.29
2023-03-06T04:42:53.408Z,3.43
2023-03-06T04:43:53.377Z,3.36
2023-03-06T04:44:53.358Z,3.43
2023-03-06T04:45:53.395Z,3.39
2023-03-06T04:46:53.298Z,3.42
2023-03-06T04:47:53.265Z,3.40
2023-03-06T04:48:53.238Z,3.42
2023-03-06T04:49:53.211Z,3.36
2023-03-06T04:50:53.203Z,3.32
2023-03-06T04:51:53.149Z,3.39
2023-03-06T04:52:53.144Z,3.42
2023-03-06T04:53:53.094Z,3.29
2023-03-06T04:54:53.072Z,3.29
2023-03-06T04:55:53.038Z,3.32
2023-03-06T04:56:53.013Z,3.32
2023-03-06T04:57:52.983Z,3.32
2023-03-06T04:58:52.957Z,3.32
2023-03-06T04:59:52.928Z,3.40
2023-03-06T05:00:53.047Z,3.35
2023-03-06T05:01:52.891Z,3.39
2023-03-06T05:02:52.849Z,3.39
2023-03-06T05:03:52.815Z,3.39
2023-03-06T05:04:52.794Z,3.43
2023-03-06T05:05:52.751Z,3.40
2023-03-06T05:06:52.755Z,3.31
2023-03-06T05:07:52.702Z,3.29
2023-03-06T05:08:52.673Z,3.21
2023-03-06T05:09:52.638Z,3.26
2023-03-06T05:10:52.612Z,3.17
2023-03-06T05:11:52.586Z,3.21
2023-03-06T05:12:52.559Z,3.28
2023-03-06T05:13:52.525Z,3.23
2023-03-06T05:14:52.502Z,3.23
2023-03-06T05:15:52.477Z,3.28
2023-03-06T05:16:52.451Z,3.24
2023-03-06T05:17:52.413Z,3.28
2023-03-06T05:18:52.396Z,3.31
2023-03-06T05:19:52.353Z,3.32
2023-03-06T05:20:52.338Z,3.20
2023-03-06T05:21:52.320Z,3.18
2023-03-06T05:22:52.302Z,3.21
2023-03-06T05:23:52.246Z,3.26
2023-03-06T05:24:52.222Z,3.20
2023-03-06T05:25:52.185Z,3.21
2023-03-06T05:26:52.164Z,3.21
2023-03-06T05:27:52.130Z,3.21
2023-03-06T05:28:52.119Z,3.28
2023-03-06T05:29:52.086Z,3.28
2023-03-06T05:30:52.065Z,3.29
2023-03-06T05:31:52.065Z,3.17
2023-03-06T05:32:52.031Z,3.24
2023-03-06T05:33:51.962Z,3.17
2023-03-06T05:34:51.934Z,3.11
2023-03-06T05:35:52.019Z,3.10
2023-03-06T05:36:51.879Z,3.03
2023-03-06T05:37:51.861Z,3.11
2023-03-06T05:38:51.851Z,3.08
2023-03-06T05:39:51.802Z,3.11
2023-03-06T05:40:51.771Z,3.13
2023-03-06T05:41:51.743Z,3.13
2023-03-06T05:42:51.717Z,3.13
2023-03-06T05:43:51.682Z,3.23
2023-03-06T05:44:51.659Z,3.14
2023-03-06T05:45:51.750Z,3.18
2023-03-06T05:46:51.598Z,3.26
2023-03-06T05:47:51.573Z,3.29
2023-03-06T05:48:51.547Z,3.23
2023-03-06T05:49:51.516Z,3.28
2023-03-06T05:50:51.497Z,3.24
2023-03-06T05:51:51.455Z,3.14
2023-03-06T05:52:51.434Z,3.21
2023-03-06T05:53:51.400Z,3.23
2023-03-06T05:54:51.399Z,3.29
2023-03-06T05:55:51.341Z,3.29
2023-03-06T05:56:51.325Z,3.33
2023-03-06T05:57:51.286Z,3.35
2023-03-06T05:58:51.261Z,3.39
2023-03-06T05:59:51.242Z,3.33
2023-03-06T06:00:51.212Z,3.33
2023-03-06T06:01:51.174Z,3.35
2023-03-06T06:02:51.157Z,3.40
2023-03-06T06:03:51.147Z,3.42
2023-03-06T06:04:51.097Z,3.43
2023-03-06T06:05:51.058Z,3.47
2023-03-06T06:06:51.034Z,3.35
2023-03-06T06:07:51.004Z,3.42
2023-03-06T06:08:50.979Z,3.45
2023-03-06T06:09:50.988Z,3.40
2023-03-06T06:10:53.320Z,3.40
2023-03-06T06:11:50.884Z,3.40
2023-03-06T06:12:50.865Z,3.45
2023-03-06T06:13:50.832Z,3.40
2023-03-06T06:14:50.805Z,3.32
2023-03-06T06:15:50.802Z,3.39
2023-03-06T06:16:50.752Z,3.43
2023-03-06T06:17:50.724Z,3.47
2023-03-06T06:18:50.694Z,3.47
2023-03-06T06:19:50.663Z,3.45
2023-03-06T06:20:50.633Z,3.47
2023-03-06T06:21:50.613Z,3.42
2023-03-06T06:22:50.584Z,3.48
2023-03-06T06:23:50.551Z,3.45
2023-03-06T06:24:50.528Z,3.50
2023-03-06T06:25:50.497Z,3.48
2023-03-06T06:26:50.498Z,3.60
2023-03-06T06:27:50.433Z,3.48
2023-03-06T06:28:50.409Z,3.55
2023-03-06T06:29:50.387Z,3.48
2023-03-06T06:30:50.388Z,3.52
2023-03-06T06:31:50.327Z,3.47
2023-03-06T06:32:50.300Z,3.54
2023-03-06T06:33:50.274Z,3.51
2023-03-06T06:34:50.257Z,3.55
2023-03-06T06:35:50.266Z,3.62
2023-03-06T06:36:53.130Z,3.68
2023-03-06T06:37:50.155Z,3.52
2023-03-06T06:38:50.133Z,3.57
2023-03-06T06:39:50.095Z,3.57
2023-03-06T06:41:25.479Z,3.52
2023-03-06T06:42:02.721Z,3.51
2023-03-06T06:42:50.051Z,3.47
2023-03-06T06:43:49.987Z,3.47
2023-03-06T06:44:49.963Z,3.60
2023-03-06T06:45:50.529Z,3.55
2023-03-06T06:47:49.972Z,3.60
2023-03-06T06:48:49.849Z,3.54
2023-03-06T06:49:49.817Z,3.54
2023-03-06T06:50:49.799Z,3.52
2023-03-06T06:51:49.794Z,3.51
2023-03-06T06:52:49.770Z,3.54
2023-03-06T06:53:49.705Z,3.58
2023-03-06T06:54:49.690Z,3.58
2023-03-06T06:55:49.652Z,3.61
2023-03-06T06:56:49.643Z,3.57
2023-03-06T06:57:49.590Z,3.57
2023-03-06T06:58:49.594Z,3.54
2023-03-06T06:59:52.308Z,3.54
2023-03-06T07:00:49.507Z,3.47
2023-03-06T07:01:49.535Z,3.55
2023-03-06T07:02:49.466Z,3.54
2023-03-06T07:03:49.470Z,3.50
2023-03-06T07:05:03.146Z,3.58
2023-03-06T07:05:49.366Z,3.54
2023-03-06T07:06:49.352Z,3.58
2023-03-06T07:07:49.313Z,3.65
2023-03-06T07:08:49.295Z,3.60
2023-03-06T07:09:49.250Z,3.61
2023-03-06T07:10:49.229Z,3.70
2023-03-06T07:11:49.291Z,3.65
2023-03-06T07:12:49.177Z,3.62
2023-03-06T07:13:49.142Z,3.73
2023-03-06T07:14:49.135Z,3.70
2023-03-06T07:15:49.113Z,3.70
2023-03-06T07:16:49.066Z,3.75
2023-03-06T07:17:50.261Z,3.62
2023-03-06T07:18:49.012Z,3.68
2023-03-06T07:19:48.980Z,3.65
2023-03-06T07:20:48.956Z,3.75
2023-03-06T07:21:48.922Z,3.69
2023-03-06T07:22:51.628Z,3.72
2023-03-06T07:23:48.871Z,3.69
2023-03-06T07:24:48.843Z,3.68
2023-03-06T07:25:48.813Z,3.68
2023-03-06T07:26:48.783Z,3.70
2023-03-06T07:27:53.280Z,3.70
2023-03-06T07:28:52.694Z,3.73
2023-03-06T07:29:48.693Z,3.73
2023-03-06T07:30:48.686Z,3.70
2023-03-06T07:31:48.641Z,3.73
2023-03-06T07:32:48.622Z,3.70
2023-03-06T07:33:48.584Z,3.79
2023-03-06T07:34:48.560Z,3.75
2023-03-06T07:35:48.547Z,3.73
2023-03-06T07:36:48.493Z,3.73
2023-03-06T07:37:48.474Z,3.73
2023-03-06T07:38:48.442Z,3.75
2023-03-06T07:39:48.421Z,3.80
2023-03-06T07:40:48.387Z,3.78
2023-03-06T07:41:48.366Z,3.78
2023-03-06T07:42:48.333Z,3.76
2023-03-06T07:43:48.306Z,3.76
2023-03-06T07:44:48.284Z,3.84
2023-03-06T07:45:48.247Z,3.84
2023-03-06T07:46:48.291Z,3.86
2023-03-06T07:47:48.195Z,3.94
2023-03-06T07:48:48.161Z,3.88
2023-03-06T07:49:48.144Z,3.90
2023-03-06T07:50:48.105Z,3.96
2023-03-06T07:51:48.090Z,3.96
2023-03-06T07:52:48.051Z,3.88
2023-03-06T07:53:48.027Z,3.96
2023-03-06T07:54:48.001Z,3.91
2023-03-06T07:55:47.980Z,3.73
2023-03-06T07:56:47.936Z,3.80
2023-03-06T07:57:47.915Z,3.75
2023-03-06T07:58:47.881Z,3.80
2023-03-06T07:59:47.862Z,3.73
2023-03-06T08:00:47.824Z,3.76
2023-03-06T08:01:47.802Z,3.76
2023-03-06T08:02:47.825Z,3.73
2023-03-06T08:03:47.885Z,3.72
2023-03-06T08:04:47.717Z,3.70
2023-03-06T08:05:47.710Z,3.61
2023-03-06T08:06:47.660Z,3.62
2023-03-06T08:07:47.636Z,3.66
2023-03-06T08:08:47.608Z,3.72
2023-03-06T08:09:47.581Z,3.62
2023-03-06T08:10:47.545Z,3.60
2023-03-06T08:11:47.524Z,3.60
2023-03-06T08:12:47.504Z,3.58
2023-03-06T08:13:47.461Z,3.66
2023-03-06T08:14:47.434Z,3.66
2023-03-06T08:15:47.411Z,3.61
2023-03-06T08:16:47.376Z,3.62
2023-03-06T08:17:47.353Z,3.69
2023-03-06T08:18:47.330Z,3.58
2023-03-06T08:19:47.323Z,3.55
2023-03-06T08:20:47.265Z,3.55
2023-03-06T08:21:47.240Z,3.51
2023-03-06T08:22:47.203Z,3.52
2023-03-06T08:23:47.185Z,3.54
2023-03-06T08:24:47.154Z,3.60
2023-03-06T08:25:47.120Z,3.62
2023-03-06T08:26:47.111Z,3.62
2023-03-06T08:27:47.062Z,3.51
2023-03-06T08:28:47.031Z,3.54
2023-03-06T08:29:47.009Z,3.60
2023-03-06T08:30:46.976Z,3.51
2023-03-06T08:31:47.036Z,3.54
2023-03-06T08:32:46.923Z,3.51
2023-03-06T08:33:46.896Z,3.52
2023-03-06T08:34:46.885Z,3.52
2023-03-06T08:35:46.883Z,3.65
2023-03-06T08:36:46.807Z,3.72
2023-03-06T08:37:46.789Z,3.69
2023-03-06T08:38:46.752Z,3.57
2023-03-06T08:39:46.735Z,3.55
2023-03-06T08:40:46.705Z,3.57
2023-03-06T08:41:46.686Z,3.66
2023-03-06T08:42:46.635Z,3.61
2023-03-06T08:43:46.630Z,3.62
2023-03-06T08:44:46.582Z,3.58
2023-03-06T08:45:46.618Z,3.45
2023-03-06T08:46:46.519Z,3.50
2023-03-06T08:47:46.503Z,3.45
2023-03-06T08:48:46.471Z,3.45
2023-03-06T08:49:46.443Z,3.45
2023-03-06T08:50:46.437Z,3.48
2023-03-06T08:51:46.387Z,3.45
2023-03-06T08:52:46.351Z,3.48
2023-03-06T08:53:46.326Z,3.51
2023-03-06T08:54:46.306Z,3.48
2023-03-06T08:55:46.272Z,3.52
2023-03-06T08:56:46.249Z,3.47
2023-03-06T08:57:46.212Z,3.40
2023-03-06T08:58:46.391Z,3.48
2023-03-06T08:59:46.165Z,3.45
2023-03-06T09:00:46.314Z,3.48
2023-03-06T09:01:46.151Z,3.43
2023-03-06T09:02:46.073Z,3.48
2023-03-06T09:03:46.052Z,3.50
2023-03-06T09:04:46.014Z,3.45
2023-03-06T09:05:45.995Z,3.42
2023-03-06T09:06:45.985Z,3.39
2023-03-06T09:07:45.935Z,3.48
2023-03-06T09:08:45.912Z,3.35
2023-03-06T09:09:45.880Z,3.40
2023-03-06T09:10:45.907Z,3.39
2023-03-06T09:11:45.821Z,3.42
2023-03-06T09:12:51.266Z,3.45
2023-03-06T09:13:45.761Z,3.50
2023-03-06T09:14:45.738Z,3.48
2023-03-06T09:15:45.714Z,3.45
2023-03-06T09:16:45.713Z,3.39
2023-03-06T09:17:45.694Z,3.43
2023-03-06T09:18:45.631Z,3.33
2023-03-06T09:19:45.597Z,3.47
2023-03-06T09:20:45.584Z,3.45
2023-03-06T09:21:45.549Z,3.40
2023-03-06T09:22:45.537Z,3.43
2023-03-06T09:23:45.493Z,3.50
2023-03-06T09:24:45.459Z,3.48
2023-03-06T09:25:45.431Z,3.39
2023-03-06T09:26:47.175Z,3.50
2023-03-06T09:27:45.375Z,3.52
2023-03-06T09:28:45.365Z,3.50
2023-03-06T09:29:45.316Z,3.47
2023-03-06T09:30:45.320Z,3.57
2023-03-06T09:31:45.287Z,3.48
2023-03-06T09:32:45.266Z,3.52
2023-03-06T09:33:45.220Z,3.45
2023-03-06T09:34:45.180Z,3.60
2023-03-06T09:35:45.176Z,3.52
2023-03-06T09:36:55.575Z,3.57
2023-03-06T09:37:45.147Z,3.54
2023-03-06T09:38:45.087Z,3.54
2023-03-06T09:39:45.053Z,3.51
2023-03-06T09:40:45.028Z,3.50
2023-03-06T09:41:44.983Z,3.55
2023-03-06T09:42:44.951Z,3.57
2023-03-06T09:43:44.928Z,3.62
2023-03-06T09:44:44.893Z,3.70
2023-03-06T09:45:44.886Z,3.72
2023-03-06T09:46:44.850Z,3.65
2023-03-06T09:47:44.861Z,3.54
2023-03-06T09:48:44.782Z,3.55
2023-03-06T09:49:44.761Z,3.51
2023-03-06T09:50:44.735Z,3.48
2023-03-06T09:51:44.699Z,3.54
2023-03-06T09:52:44.666Z,3.54
2023-03-06T09:53:44.647Z,3.61
2023-03-06T09:54:44.632Z,3.54
2023-03-06T09:55:44.586Z,3.68
2023-03-06T09:56:44.556Z,3.69
2023-03-06T09:57:44.547Z,3.61
2023-03-06T09:58:44.494Z,3.66
2023-03-06T09:59:44.498Z,3.72
2023-03-06T10:00:44.440Z,3.70
2023-03-06T10:01:44.415Z,3.68
2023-03-06T10:02:44.559Z,3.72
2023-03-06T10:03:44.361Z,3.76
2023-03-06T10:04:44.351Z,3.79
2023-03-06T10:05:44.303Z,3.88
2023-03-06T10:06:44.281Z,3.88
2023-03-06T10:07:44.250Z,3.80
2023-03-06T10:08:44.217Z,3.90
2023-03-06T10:09:44.193Z,3.91
2023-03-06T10:10:44.182Z,3.84
2023-03-06T10:11:44.134Z,3.84
2023-03-06T10:12:44.100Z,3.91
2023-03-06T10:13:44.082Z,3.87
2023-03-06T10:14:44.141Z,3.97
2023-03-06T10:15:44.141Z,3.87
2023-03-06T10:16:43.997Z,3.93
2023-03-06T10:17:44.000Z,4.06
2023-03-06T10:18:43.942Z,4.09
2023-03-06T10:19:43.912Z,4.12
2023-03-06T10:20:43.888Z,4.11
2023-03-06T10:21:43.871Z,4.08
2023-03-06T10:22:48.051Z,4.08
2023-03-06T10:23:43.809Z,4.18
2023-03-06T10:24:43.786Z,4.16
2023-03-06T10:25:43.750Z,4.24
2023-03-06T10:26:43.916Z,4.27
2023-03-06T10:27:43.690Z,4.27
2023-03-06T10:28:43.660Z,4.27
2023-03-06T10:29:47.626Z,4.29
2023-03-06T10:30:43.677Z,4.30
2023-03-06T10:31:43.586Z,4.29
2023-03-06T10:32:48.782Z,4.41
2023-03-06T10:33:43.558Z,4.42
2023-03-06T10:34:43.493Z,4.54
2023-03-06T10:35:43.522Z,4.67
2023-03-06T10:36:43.444Z,4.65
2023-03-06T10:37:43.415Z,4.65
2023-03-06T10:38:43.387Z,4.75
2023-03-06T10:39:43.362Z,4.73
2023-03-06T10:40:43.330Z,4.70
2023-03-06T10:41:44.669Z,4.89
2023-03-06T10:42:43.311Z,4.92
2023-03-06T10:43:43.253Z,4.85
2023-03-06T10:44:43.231Z,4.72
2023-03-06T10:45:48.988Z,4.78
2023-03-06T10:46:43.249Z,4.86
2023-03-06T10:47:43.144Z,4.92
2023-03-06T10:48:43.115Z,5.03
2023-03-06T10:49:43.089Z,5.03
2023-03-06T10:50:43.073Z,5.00
2023-03-06T10:51:43.042Z,5.04
2023-03-06T10:52:43.000Z,4.92
2023-03-06T10:53:42.978Z,4.88
2023-03-06T10:54:42.948Z,4.88
2023-03-06T10:55:42.929Z,4.85
2023-03-06T10:56:42.896Z,4.84
2023-03-06T10:57:42.866Z,4.78
2023-03-06T10:58:42.870Z,4.80
2023-03-06T10:59:42.809Z,4.89
2023-03-06T11:00:42.780Z,4.91
2023-03-06T11:01:42.805Z,4.91
2023-03-06T11:02:42.722Z,4.89
2023-03-06T11:03:42.706Z,4.92
2023-03-06T11:04:42.697Z,4.80
2023-03-06T11:05:42.647Z,4.86
2023-03-06T11:06:42.619Z,4.82
2023-03-06T11:07:42.601Z,4.84
2023-03-06T11:08:42.562Z,4.85
2023-03-06T11:09:42.536Z,4.96
2023-03-06T11:10:42.500Z,4.91
2023-03-06T11:11:42.477Z,5.00
2023-03-06T11:12:42.460Z,5.12
2023-03-06T11:13:42.427Z,5.15
2023-03-06T11:14:42.438Z,5.10
2023-03-06T11:15:42.412Z,5.20
2023-03-06T11:16:42.332Z,5.17
2023-03-06T11:17:42.311Z,5.18
2023-03-06T11:18:42.279Z,5.36
2023-03-06T11:19:42.265Z,5.30
2023-03-06T11:20:51.370Z,5.31
2023-03-06T11:21:42.201Z,5.39
2023-03-06T11:22:42.180Z,5.30
2023-03-06T11:23:42.146Z,5.33
2023-03-06T11:24:42.118Z,5.45
2023-03-06T11:25:42.096Z,5.42
2023-03-06T11:26:42.070Z,5.45
2023-03-06T11:27:42.042Z,5.53
2023-03-06T11:28:42.006Z,5.54
2023-03-06T11:29:42.087Z,5.53
2023-03-06T11:30:41.976Z,5.49
2023-03-06T11:31:42.046Z,5.39
2023-03-06T11:32:41.936Z,5.30
2023-03-06T11:33:41.875Z,5.25
2023-03-06T11:34:41.858Z,5.33
2023-03-06T11:35:41.874Z,5.36
2023-03-06T11:36:41.788Z,5.40
2023-03-06T11:37:41.764Z,5.43
2023-03-06T11:38:41.732Z,5.39
2023-03-06T11:39:41.707Z,5.25
2023-03-06T11:40:41.682Z,5.31
2023-03-06T11:41:41.642Z,5.35
2023-03-06T11:42:41.627Z,5.31
2023-03-06T11:43:41.596Z,5.33
2023-03-06T11:44:41.574Z,5.27
2023-03-06T11:45:41.537Z,5.36
2023-03-06T11:46:41.612Z,5.33
2023-03-06T11:47:41.490Z,5.40
2023-03-06T11:48:41.467Z,5.42
2023-03-06T11:49:41.435Z,5.36
2023-03-06T11:50:41.403Z,5.43
2023-03-06T11:51:41.373Z,5.46
2023-03-06T11:52:41.356Z,5.49
2023-03-06T11:53:41.893Z,5.48
2023-03-06T11:54:41.298Z,5.58
2023-03-06T11:55:41.289Z,5.58
2023-03-06T11:56:41.248Z,5.60
2023-03-06T11:57:41.255Z,5.65
2023-03-06T11:58:41.214Z,5.56
2023-03-06T11:59:41.162Z,5.56
2023-03-06T12:00:41.143Z,5.45
2023-03-06T12:01:41.181Z,5.49
2023-03-06T12:02:41.113Z,5.45
2023-03-06T12:03:41.065Z,5.43
2023-03-06T12:04:41.031Z,5.46
2023-03-06T12:05:41.071Z,5.42
2023-03-06T12:06:40.969Z,5.49
2023-03-06T12:07:40.944Z,5.38
2023-03-06T12:08:40.930Z,5.30
2023-03-06T12:09:40.901Z,5.31
2023-03-06T12:10:40.866Z,5.36
2023-03-06T12:11:40.840Z,5.42
2023-03-06T12:12:40.818Z,5.43
2023-03-06T12:13:40.775Z,5.51
2023-03-06T12:14:40.778Z,5.51
2023-03-06T12:15:40.727Z,5.64
2023-03-06T12:16:40.731Z,5.58
2023-03-06T12:17:40.685Z,5.58
2023-03-06T12:18:40.670Z,5.57
2023-03-06T12:19:40.611Z,5.60
2023-03-06T12:20:40.586Z,5.68
2023-03-06T12:21:40.559Z,5.65
2023-03-06T12:22:40.538Z,5.79
2023-03-06T12:23:40.502Z,5.72
2023-03-06T12:24:40.482Z,5.68
2023-03-06T12:25:40.453Z,5.78
2023-03-06T12:26:40.430Z,5.78
2023-03-06T12:27:40.398Z,5.76
2023-03-06T12:28:40.375Z,5.83
2023-03-06T12:29:40.347Z,5.91
2023-03-06T12:30:40.317Z,5.96
2023-03-06T12:31:40.346Z,5.83
2023-03-06T12:32:40.320Z,5.78
2023-03-06T12:33:40.233Z,5.79
2023-03-06T12:34:40.238Z,5.76
2023-03-06T12:35:40.277Z,5.83
2023-03-06T12:36:40.147Z,5.82
2023-03-06T12:37:40.128Z,5.90
2023-03-06T12:38:40.097Z,5.93
2023-03-06T12:39:40.071Z,5.96
2023-03-06T12:40:40.044Z,5.99
2023-03-06T12:41:40.036Z,6.06
2023-03-06T12:42:39.993Z,6.17
2023-03-06T12:43:40.221Z,6.25
2023-03-06T12:44:39.941Z,6.34
2023-03-06T12:45:39.949Z,6.31
2023-03-06T12:46:39.883Z,6.22
2023-03-06T12:47:39.852Z,6.28
2023-03-06T12:48:39.825Z,6.31
2023-03-06T12:49:39.803Z,6.36
2023-03-06T12:50:39.872Z,6.48
2023-03-06T12:51:39.741Z,6.43
2023-03-06T12:52:39.720Z,6.38
2023-03-06T12:53:39.687Z,6.44
2023-03-06T12:54:39.671Z,6.58
2023-03-06T12:55:39.636Z,6.70
2023-03-06T12:56:39.623Z,6.76
2023-03-06T12:57:39.588Z,6.79
2023-03-06T12:58:39.564Z,6.80
2023-03-06T12:59:39.532Z,6.71
2023-03-06T13:00:39.502Z,6.77
2023-03-06T13:01:39.561Z,6.76
2023-03-06T13:02:39.487Z,6.85
2023-03-06T13:03:39.430Z,6.98
2023-03-06T13:04:39.401Z,6.94
2023-03-06T13:05:39.368Z,7.03
2023-03-06T13:06:49.855Z,7.07
2023-03-06T13:07:39.316Z,6.92
2023-03-06T13:08:39.294Z,6.81
2023-03-06T13:09:39.267Z,6.74
2023-03-06T13:10:39.241Z,6.59
2023-03-06T13:11:39.215Z,6.56
2023-03-06T13:12:39.191Z,6.58
2023-03-06T13:13:39.156Z,6.56
2023-03-06T13:14:42.299Z,6.54
2023-03-06T13:15:39.109Z,6.46
2023-03-06T13:16:39.080Z,6.38
2023-03-06T13:17:39.078Z,6.27
2023-03-06T13:18:39.023Z,6.33